createdAt,value
2023-04-05T00:01:50.035Z,3.01
2023-04-05T00:06:55.205Z,2.91
2023-04-05T00:11:57.995Z,2.77
2023-04-05T00:17:00.999Z,2.81
2023-04-05T00:22:05.309Z,2.81
2023-04-05T00:27:08.132Z,2.67
2023-04-05T00:32:11.209Z,2.75
2023-04-05T00:37:15.543Z,2.58
2023-04-05T00:42:18.370Z,2.56
2023-04-05T00:47:21.336Z,2.42
2023-04-05T00:52:27.115Z,2.49
2023-04-05T00:57:30.280Z,2.58
2023-04-05T01:02:36.611Z,2.59
2023-04-05T01:07:47.481Z,2.63
2023-04-05T01:12:50.786Z,2.53
2023-04-05T01:17:54.233Z,2.52
2023-04-05T01:23:14.977Z,2.53
2023-04-05T01:28:36.090Z,2.40
2023-04-05T01:33:46.096Z,2.38
2023-04-05T01:38:52.000Z,2.18
2023-04-05T01:43:54.752Z,2.06
2023-04-05T01:48:59.340Z,1.95
2023-04-05T01:54:02.279Z,1.81
2023-04-05T01:59:05.326Z,1.69
2023-04-05T02:04:09.605Z,1.72
2023-04-05T02:09:13.882Z,1.65
2023-04-05T02:14:17.167Z,1.60
2023-04-05T02:19:23.116Z,1.52
2023-04-05T02:24:26.554Z,1.45
2023-04-05T02:29:29.746Z,1.34
2023-04-05T02:34:34.326Z,1.46
2023-04-05T02:39:37.134Z,1.61
2023-04-05T02:44:41.163Z,1.61
2023-04-05T02:49:47.241Z,1.31
2023-04-05T02:54:51.802Z,1.29
2023-04-05T03:00:01.191Z,1.13
2023-04-05T03:05:09.771Z,0.92
2023-04-05T03:10:18.646Z,0.75
2023-04-05T03:15:28.051Z,0.76
2023-04-05T03:20:35.501Z,0.85
2023-04-05T03:25:41.623Z,0.95
2023-04-05T03:30:45.900Z,0.66
2023-04-05T03:35:56.417Z,0.41
2023-04-05T03:41:00.103Z,0.41
2023-04-05T03:46:05.160Z,0.47
2023-04-05T03:51:09.586Z,0.78
2023-04-05T03:56:12.608Z,0.88
2023-04-05T04:01:21.380Z,0.78
2023-04-05T04:06:27.460Z,0.58
2023-04-05T04:11:30.878Z,0.36
2023-04-05T04:16:37.542Z,0.25
2023-04-05T04:21:53.110Z,0.23
2023-04-05T04:27:19.966Z,0.27
2023-04-05T04:32:57.978Z,0.24
2023-04-05T04:38:09.137Z,0.15
2023-04-05T04:43:26.713Z,0.11
2023-04-05T04:48:48.194Z,0.11
2023-04-05T04:54:07.373Z,0.06
2023-04-05T04:59:10.390Z,0.03
2023-04-05T05:04:13.328Z,0.00
2023-04-05T05:09:19.216Z,0.09
2023-04-05T05:14:26.653Z,0.06
2023-04-05T05:19:30.112Z,0.03
2023-04-05T05:24:35.506Z,0.02
2023-04-05T05:29:38.323Z,0.09
2023-04-05T05:34:41.725Z,0.30
2023-04-05T05:39:45.904Z,0.45
2023-04-05T05:44:48.712Z,0.51
2023-04-05T05:49:51.533Z,0.65
2023-04-05T05:54:55.865Z,0.69
2023-04-05T05:59:58.971Z,0.85
2023-04-05T06:05:02.246Z,1.04
2023-04-05T06:10:07.648Z,1.18
2023-04-05T06:15:11.392Z,1.49
2023-04-05T06:20:14.491Z,2.27
2023-04-05T06:25:18.988Z,2.81
2023-04-05T06:30:22.016Z,3.04
2023-04-05T06:35:27.789Z,3.48
2023-04-05T06:40:32.138Z,3.95
2023-04-05T06:45:35.015Z,4.05
2023-04-05T06:50:37.894Z,3.77
2023-04-05T06:55:42.608Z,3.95
2023-04-05T07:00:45.497Z,3.98
2023-04-05T07:05:52.798Z,4.18
2023-04-05T07:10:57.008Z,4.52
2023-04-05T07:16:03.657Z,4.92
2023-04-05T07:21:06.657Z,5.06
2023-04-05T07:26:12.382Z,5.46
2023-04-05T07:31:16.451Z,5.71
2023-04-05T07:36:19.409Z,5.77
2023-04-05T07:41:23.761Z,5.98
2023-04-05T07:46:27.322Z,6.22
2023-04-05T07:51:31.535Z,6.57
2023-04-05T07:56:37.775Z,6.76
2023-04-05T08:01:40.555Z,6.99
2023-04-05T08:06:43.321Z,6.95
2023-04-05T08:11:47.450Z,7.01
2023-04-05T08:16:50.774Z,7.85
2023-04-05T08:21:54.041Z,8.32
2023-04-05T08:26:58.228Z,8.62
2023-04-05T08:32:01.019Z,9.00
2023-04-05T08:37:03.861Z,9.36
2023-04-05T08:42:13.242Z,9.85
2023-04-05T08:47:20.690Z,9.85
2023-04-05T08:52:23.545Z,9.87
2023-04-05T08:57:32.637Z,9.84
2023-04-05T09:02:36.544Z,9.70
2023-04-05T09:07:40.076Z,9.85
2023-04-05T09:12:44.409Z,9.84
2023-04-05T09:17:47.457Z,10.47
2023-04-05T09:22:50.538Z,10.84
2023-04-05T09:27:57.655Z,10.75
2023-04-05T09:33:01.324Z,10.78
2023-04-05T09:38:06.157Z,10.65
2023-04-05T09:43:13.326Z,10.52
2023-04-05T09:48:16.228Z,10.79
2023-04-05T09:53:19.332Z,11.18
2023-04-05T09:58:33.882Z,11.40
2023-04-05T10:03:48.430Z,11.10
2023-04-05T10:08:52.540Z,11.68
2023-04-05T10:13:56.694Z,12.03
2023-04-05T10:18:59.479Z,12.77
2023-04-05T10:24:11.129Z,12.76
2023-04-05T10:29:21.180Z,12.96
2023-04-05T10:34:32.331Z,12.31
2023-04-05T10:39:41.023Z,12.30
2023-04-05T10:44:49.372Z,11.68
2023-04-05T10:49:55.266Z,12.97
2023-04-05T10:55:00.027Z,13.68
2023-04-05T11:00:05.265Z,14.78
2023-04-05T11:05:29.269Z,16.74
2023-04-05T11:10:33.169Z,16.79
2023-04-05T11:15:37.823Z,18.19
2023-04-05T11:20:45.174Z,18.37
2023-04-05T11:25:51.682Z,16.98
2023-04-05T11:30:58.805Z,16.94
2023-04-05T11:36:02.942Z,16.03
2023-04-05T11:41:17.480Z,16.40
2023-04-05T11:46:22.532Z,16.93
2023-04-05T11:51:29.106Z,16.59
2023-04-05T11:56:31.952Z,16.43
2023-04-05T12:01:36.388Z,18.14
2023-04-05T12:06:39.364Z,17.04
2023-04-05T12:11:42.274Z,16.25
2023-04-05T12:16:51.306Z,15.89
2023-04-05T12:21:54.220Z,15.22
2023-04-05T12:26:59.149Z,16.73
2023-04-05T12:32:04.885Z,17.03
2023-04-05T12:37:07.718Z,16.65
2023-04-05T12:42:18.522Z,16.93
2023-04-05T12:47:22.727Z,15.96
2023-04-05T12:52:28.181Z,17.64
2023-04-05T12:57:32.162Z,19.14
2023-04-05T13:02:36.635Z,19.40
2023-04-05T13:07:39.967Z,18.48
2023-04-05T13:12:43.141Z,19.11
2023-04-05T13:17:49.878Z,18.77
2023-04-05T13:22:53.074Z,19.24
2023-04-05T13:27:56.027Z,18.53
2023-04-05T13:33:00.295Z,17.84
2023-04-05T13:38:04.542Z,18.17
2023-04-05T13:43:07.623Z,17.61
2023-04-05T13:48:11.868Z,17.86
2023-04-05T13:53:15.434Z,15.85
2023-04-05T13:58:18.380Z,17.28
2023-04-05T14:03:22.895Z,17.84
2023-04-05T14:08:25.889Z,17.80
2023-04-05T14:13:28.655Z,18.28
2023-04-05T14:18:32.889Z,18.41
2023-04-05T14:23:38.376Z,17.36
2023-04-05T14:28:41.432Z,17.67
2023-04-05T14:33:45.749Z,17.76
2023-04-05T14:38:48.867Z,17.47
2023-04-05T14:43:51.719Z,17.07
2023-04-05T14:48:56.047Z,17.05
2023-04-05T14:53:58.861Z,16.95
2023-04-05T14:59:02.477Z,17.23
2023-04-05T15:04:09.280Z,17.46
2023-04-05T15:09:12.342Z,17.14
2023-04-05T15:14:24.816Z,16.48
2023-04-05T15:19:36.185Z,16.45
2023-04-05T15:24:40.454Z,16.35
2023-04-05T15:29:43.277Z,16.13
2023-04-05T15:34:47.483Z,16.02
2023-04-05T15:39:50.270Z,16.48
2023-04-05T15:44:53.086Z,16.58
2023-04-05T15:49:58.336Z,15.99
2023-04-05T15:55:01.232Z,15.95
2023-04-05T16:00:04.806Z,15.64
2023-04-05T16:05:09.309Z,16.19
2023-04-05T16:10:12.670Z,14.01
2023-04-05T16:15:15.570Z,13.43
2023-04-05T16:20:19.880Z,13.66
2023-04-05T16:25:22.816Z,13.03
2023-04-05T16:30:26.119Z,13.49
2023-04-05T16:35:31.111Z,13.20
2023-04-05T16:40:34.313Z,13.46
2023-04-05T16:45:37.489Z,13.28
2023-04-05T16:50:42.155Z,13.44
2023-04-05T16:55:45.005Z,13.53
2023-04-05T17:00:47.873Z,13.08
2023-04-05T17:05:52.192Z,12.90
2023-04-05T17:10:55.199Z,12.85
2023-04-05T17:15:58.106Z,12.64
2023-04-05T17:21:02.346Z,12.16
2023-04-05T17:26:05.546Z,11.60
2023-04-05T17:31:08.478Z,11.13
2023-04-05T17:36:12.820Z,10.71
2023-04-05T17:41:15.709Z,10.38
2023-04-05T17:46:27.269Z,9.98
2023-04-05T17:51:34.929Z,9.66
2023-04-05T17:56:38.121Z,9.47
2023-04-05T18:01:41.067Z,9.29
2023-04-05T18:06:45.244Z,9.15
2023-04-05T18:11:48.082Z,8.96
2023-04-05T18:16:51.142Z,8.82
2023-04-05T18:21:55.400Z,8.66
2023-04-05T18:26:58.430Z,8.54
2023-04-05T18:32:01.479Z,8.47
2023-04-05T18:37:06.082Z,8.46
2023-04-05T18:42:09.069Z,8.38
2023-04-05T18:47:11.943Z,8.32
2023-04-05T18:52:21.874Z,8.28
2023-04-05T18:57:26.360Z,8.15
2023-04-05T19:02:29.316Z,8.06
2023-04-05T19:07:33.576Z,7.89
2023-04-05T19:12:36.395Z,7.78
2023-04-05T19:17:39.208Z,7.73
2023-04-05T19:22:43.498Z,7.68
2023-04-05T19:27:46.464Z,7.62
2023-04-05T19:32:49.818Z,7.54
2023-04-05T19:37:54.062Z,7.34
2023-04-05T19:42:56.922Z,7.14
2023-04-05T19:48:01.665Z,6.95
2023-04-05T19:53:08.668Z,6.87
2023-04-05T19:58:12.586Z,6.84
2023-04-05T20:03:30.286Z,6.81
2023-04-05T20:08:36.494Z,6.72
2023-04-05T20:13:43.186Z,6.66
2023-04-05T20:18:47.296Z,6.62
2023-04-05T20:23:51.645Z,6.60
2023-04-05T20:28:55.503Z,6.29
2023-04-05T20:33:59.706Z,6.24
2023-04-05T20:39:06.136Z,6.22
2023-04-05T20:44:09.182Z,6.13
2023-04-05T20:49:12.514Z,5.98
2023-04-05T20:54:16.796Z,5.82
2023-04-05T20:59:19.757Z,5.81
2023-04-05T21:04:22.646Z,5.73
2023-04-05T21:09:27.727Z,5.67
2023-04-05T21:14:30.562Z,5.55
2023-04-05T21:19:33.386Z,5.47
2023-04-05T21:24:37.588Z,5.48
2023-04-05T21:29:40.419Z,5.35
2023-04-05T21:34:43.279Z,5.28
2023-04-05T21:39:47.463Z,5.20
2023-04-05T21:44:50.255Z,5.19
2023-04-05T21:49:53.380Z,5.10
2023-04-05T21:54:58.242Z,5.02
2023-04-05T22:00:01.349Z,5.04
2023-04-05T22:05:04.382Z,5.01
2023-04-05T22:10:09.935Z,4.91
2023-04-05T22:15:12.770Z,4.79
2023-04-05T22:20:15.560Z,4.67
2023-04-05T22:25:19.783Z,4.70
2023-04-05T22:30:22.744Z,4.67
2023-04-05T22:35:25.634Z,4.52
2023-04-05T22:40:29.764Z,4.47
2023-04-05T22:45:32.519Z,4.32
2023-04-05T22:50:35.370Z,4.28
2023-04-05T22:55:40.093Z,4.16
2023-04-05T23:00:42.903Z,4.04
2023-04-05T23:05:45.737Z,4.00
2023-04-05T23:10:49.972Z,3.97
2023-04-05T23:15:52.800Z,3.90
2023-04-05T23:20:55.684Z,3.94
2023-04-05T23:25:59.852Z,3.96
2023-04-05T23:31:02.648Z,3.91
2023-04-05T23:36:06.419Z,3.94
2023-04-05T23:41:11.009Z,3.89
2023-04-05T23:46:13.874Z,3.89
2023-04-05T23:51:16.972Z,3.91
2023-04-05T23:56:21.149Z,3.94
